Holton, Michigan
Current Conditions -  °F | °C
As of 12:31 AM on Sunday 21 Dec 2014 (Local Time) from KFFX Reporting Station
Haze Haze  
Wind Chill: -2°   Ceiling: 1000
Heat Index: -2°   Visibility: 5mi
Dew Point: -2°   Wind: 0mph
Humidity: 95%   Direction: NA
Pressure: 30.23"   Gusts: NA
Location:  43.41°N, 86.08°W
Report Text: KFFX 210531Z AUTO 00000KT 5SM BR BKN010 OVC017 M01/M02 A3023 RMK AO2 T10151022
Loading
Personal Weather Stations






























Interactive Weather Map New forecast layout! Learn more

10-Day Weather Forecast

Advertisements
Track Severe Weather on mobile